createdAt,value
2022-12-28T00:01:24.072Z,1.70
2022-12-28T00:03:54.032Z,2.08
2022-12-28T00:06:24.176Z,2.20
2022-12-28T00:08:54.087Z,2.00
2022-12-28T00:11:27.894Z,2.00
2022-12-28T00:14:01.310Z,2.25
2022-12-28T00:16:31.394Z,1.75
2022-12-28T00:19:02.467Z,2.00
2022-12-28T00:21:31.056Z,1.88
2022-12-28T00:24:00.525Z,1.90
2022-12-28T00:26:30.137Z,2.05
2022-12-28T00:29:04.071Z,1.90
2022-12-28T00:31:33.378Z,1.90
2022-12-28T00:34:02.912Z,2.00
2022-12-28T00:37:10.260Z,2.25
2022-12-28T00:39:20.350Z,2.03
2022-12-28T00:41:50.792Z,2.15
2022-12-28T00:44:19.152Z,1.85
2022-12-28T00:46:49.360Z,1.92
2022-12-28T00:49:21.257Z,1.65
2022-12-28T00:51:48.929Z,2.08
2022-12-28T00:54:16.577Z,1.85
2022-12-28T00:56:44.273Z,1.70
2022-12-28T00:59:12.651Z,1.90
2022-12-28T01:01:41.255Z,2.33
2022-12-28T01:04:09.053Z,1.88
2022-12-28T01:06:39.759Z,1.88
2022-12-28T01:09:07.472Z,2.08
2022-12-28T01:11:35.132Z,2.05
2022-12-28T01:14:03.708Z,2.00
2022-12-28T01:16:34.269Z,1.75
2022-12-28T01:19:04.654Z,1.70
2022-12-28T01:21:35.824Z,1.92
2022-12-28T01:24:07.716Z,1.60
2022-12-28T01:26:35.480Z,2.10
2022-12-28T01:29:03.883Z,2.10
2022-12-28T01:31:32.927Z,2.20
2022-12-28T01:34:04.161Z,1.90
2022-12-28T01:36:35.216Z,2.08
2022-12-28T01:39:06.167Z,1.63
2022-12-28T01:41:38.412Z,2.10
2022-12-28T01:44:42.717Z,2.28
2022-12-28T01:47:14.599Z,2.00
2022-12-28T01:49:47.827Z,2.35
2022-12-28T01:52:20.642Z,1.80
2022-12-28T01:54:57.389Z,2.00
2022-12-28T01:57:28.439Z,1.92
2022-12-28T02:00:02.592Z,1.88
2022-12-28T02:02:45.802Z,2.03
2022-12-28T02:05:14.115Z,1.70
2022-12-28T02:07:48.637Z,2.30
2022-12-28T02:10:42.675Z,2.03
2022-12-28T02:13:08.512Z,2.60
2022-12-28T02:15:37.250Z,2.05
2022-12-28T02:18:06.201Z,2.25
2022-12-28T02:20:45.189Z,2.28
2022-12-28T02:23:41.167Z,2.10
2022-12-28T02:26:34.637Z,2.30
2022-12-28T02:29:15.053Z,2.00
2022-12-28T02:31:47.654Z,2.00
2022-12-28T02:34:23.156Z,2.00
2022-12-28T02:36:56.610Z,2.47
2022-12-28T02:39:32.788Z,1.80
2022-12-28T02:42:01.698Z,2.00
2022-12-28T02:44:49.038Z,1.73
2022-12-28T02:47:35.952Z,2.10
2022-12-28T02:50:07.736Z,1.98
2022-12-28T02:53:00.275Z,1.88
2022-12-28T02:56:03.255Z,1.80
2022-12-28T02:58:54.171Z,1.73
2022-12-28T03:01:43.243Z,2.13
2022-12-28T03:04:19.875Z,1.77
2022-12-28T03:07:16.856Z,2.00
2022-12-28T03:09:50.288Z,2.08
2022-12-28T03:12:28.153Z,2.00
2022-12-28T03:15:03.854Z,1.80
2022-12-28T03:17:56.176Z,2.13
2022-12-28T03:20:45.422Z,2.17
2022-12-28T03:23:34.975Z,1.65
2022-12-28T03:26:25.466Z,1.77
2022-12-28T03:29:13.179Z,2.00
2022-12-28T03:31:44.919Z,1.80
2022-12-28T03:34:18.165Z,2.05
2022-12-28T03:36:56.814Z,2.00
2022-12-28T03:39:35.809Z,2.20
2022-12-28T03:42:32.183Z,2.15
2022-12-28T03:45:08.206Z,2.00
2022-12-28T03:47:39.737Z,1.90
2022-12-28T03:50:09.904Z,2.45
2022-12-28T03:52:39.721Z,2.60
2022-12-28T03:55:07.921Z,2.20
2022-12-28T03:57:35.891Z,2.33
2022-12-28T04:00:09.241Z,2.13
2022-12-28T04:02:43.496Z,2.10
2022-12-28T04:05:13.983Z,2.60
2022-12-28T04:07:42.390Z,2.35
2022-12-28T04:10:10.554Z,2.30
2022-12-28T04:12:38.217Z,2.08
2022-12-28T04:15:19.108Z,2.28
2022-12-28T04:17:49.290Z,2.25
2022-12-28T04:20:19.467Z,2.30
2022-12-28T04:22:47.557Z,2.20
2022-12-28T04:25:15.358Z,2.10
2022-12-28T04:27:43.600Z,2.45
2022-12-28T04:30:29.190Z,2.60
2022-12-28T04:32:56.833Z,2.53
2022-12-28T04:35:25.844Z,2.35
2022-12-28T04:37:56.160Z,2.50
2022-12-28T04:40:25.130Z,2.20
2022-12-28T04:42:53.167Z,2.50
2022-12-28T04:45:22.304Z,2.30
2022-12-28T04:47:51.190Z,2.33
2022-12-28T04:50:18.944Z,2.55
2022-12-28T04:52:47.832Z,2.50
2022-12-28T04:55:32.995Z,2.70
2022-12-28T05:00:54.531Z,2.50
2022-12-28T05:03:22.109Z,2.30
2022-12-28T05:05:49.707Z,2.80
2022-12-28T05:08:19.255Z,2.70
2022-12-28T05:10:47.172Z,2.40
2022-12-28T05:13:14.763Z,2.35
2022-12-28T05:15:42.761Z,2.67
2022-12-28T05:18:10.333Z,2.45
2022-12-28T05:20:38.662Z,2.67
2022-12-28T05:23:06.241Z,2.85
2022-12-28T05:25:35.230Z,3.28
2022-12-28T05:28:06.248Z,2.40
2022-12-28T05:30:34.147Z,2.97
2022-12-28T05:33:01.747Z,2.60
2022-12-28T05:35:29.672Z,2.80
2022-12-28T05:37:57.346Z,2.90
2022-12-28T05:40:25.590Z,3.15
2022-12-28T05:42:56.180Z,3.67
2022-12-28T05:45:23.895Z,3.20
2022-12-28T05:47:51.574Z,4.30
2022-12-28T05:50:19.714Z,3.47
2022-12-28T05:52:47.539Z,4.50
2022-12-28T05:55:16.191Z,4.93
2022-12-28T05:57:47.621Z,5.68
2022-12-28T06:00:17.184Z,3.45
2022-12-28T06:02:47.630Z,3.30
2022-12-28T06:05:18.199Z,4.45
2022-12-28T06:07:46.802Z,3.70
2022-12-28T06:10:14.366Z,3.30
2022-12-28T06:12:45.252Z,3.88
2022-12-28T06:15:12.815Z,3.67
2022-12-28T06:17:42.159Z,3.58
2022-12-28T06:20:35.468Z,3.33
2022-12-28T06:23:03.348Z,3.65
2022-12-28T06:25:30.913Z,3.78
2022-12-28T06:27:58.503Z,3.95
2022-12-28T06:30:26.593Z,3.50
2022-12-28T06:32:57.302Z,3.03
2022-12-28T06:35:25.246Z,3.03
2022-12-28T06:37:52.858Z,3.20
2022-12-28T06:40:28.372Z,3.15
2022-12-28T06:43:11.162Z,3.40
2022-12-28T06:45:38.847Z,3.15
2022-12-28T06:48:07.974Z,2.95
2022-12-28T06:50:40.028Z,3.03
2022-12-28T06:53:07.920Z,3.00
2022-12-28T06:55:35.664Z,3.35
2022-12-28T06:58:03.264Z,2.95
2022-12-28T07:00:30.863Z,3.20
2022-12-28T07:02:58.727Z,3.40
2022-12-28T07:05:28.259Z,3.05
2022-12-28T07:07:57.171Z,3.15
2022-12-28T07:10:25.191Z,3.55
2022-12-28T07:12:52.811Z,3.22
2022-12-28T07:15:20.719Z,3.35
2022-12-28T07:17:48.326Z,3.38
2022-12-28T07:20:15.908Z,3.00
2022-12-28T07:22:45.161Z,3.47
2022-12-28T07:25:17.167Z,3.17
2022-12-28T07:27:46.682Z,3.20
2022-12-28T07:30:14.901Z,3.55
2022-12-28T07:32:47.164Z,3.00
2022-12-28T07:35:14.747Z,3.58
2022-12-28T07:37:42.396Z,3.38
2022-12-28T07:40:12.535Z,3.28
2022-12-28T07:42:43.176Z,3.35
2022-12-28T07:45:12.702Z,3.17
2022-12-28T07:47:41.157Z,3.40
2022-12-28T07:50:09.319Z,3.30
2022-12-28T07:52:38.254Z,3.70
2022-12-28T07:55:10.177Z,3.72
2022-12-28T08:00:12.172Z,3.92
2022-12-28T08:02:42.672Z,3.72
2022-12-28T08:05:36.424Z,4.00
2022-12-28T08:08:04.131Z,3.45
2022-12-28T08:10:32.667Z,3.92
2022-12-28T08:13:25.671Z,4.07
2022-12-28T08:18:50.195Z,4.22
2022-12-28T08:21:19.643Z,3.90
2022-12-28T08:23:48.624Z,4.60
2022-12-28T08:26:18.316Z,4.10
2022-12-28T08:28:49.038Z,4.10
2022-12-28T08:31:20.491Z,4.55
2022-12-28T08:33:48.728Z,4.50
2022-12-28T08:36:17.236Z,4.70
2022-12-28T08:38:46.774Z,4.82
2022-12-28T08:41:16.903Z,4.65
2022-12-28T08:43:45.177Z,4.75
2022-12-28T08:46:18.064Z,4.57
2022-12-28T08:48:47.842Z,4.68
2022-12-28T08:51:18.315Z,4.43
2022-12-28T08:53:47.410Z,4.35
2022-12-28T08:56:18.631Z,4.32
2022-12-28T08:58:47.360Z,4.10
2022-12-28T09:01:20.410Z,4.25
2022-12-28T09:03:50.696Z,4.30
2022-12-28T09:06:20.668Z,4.20
2022-12-28T09:09:07.565Z,4.10
2022-12-28T09:11:36.116Z,3.83
2022-12-28T09:14:06.504Z,4.00
2022-12-28T09:16:36.276Z,3.72
2022-12-28T09:19:05.761Z,3.35
2022-12-28T09:21:35.122Z,3.47
2022-12-28T09:24:08.155Z,3.88
2022-12-28T09:26:38.224Z,3.97
2022-12-28T09:29:08.661Z,3.67
2022-12-28T09:31:40.018Z,3.60
2022-12-28T09:37:01.753Z,3.60
2022-12-28T09:39:29.495Z,3.85
2022-12-28T09:42:00.299Z,3.35
2022-12-28T09:44:43.300Z,3.45
2022-12-28T09:47:20.969Z,3.60
2022-12-28T09:50:00.028Z,3.30
2022-12-28T09:52:31.320Z,3.67
2022-12-28T09:55:06.081Z,3.50
2022-12-28T09:57:39.317Z,3.70
2022-12-28T10:00:15.676Z,3.40
2022-12-28T10:02:49.257Z,3.25
2022-12-28T10:05:17.280Z,3.40
2022-12-28T10:07:45.080Z,3.20
2022-12-28T10:10:17.178Z,3.45
2022-12-28T10:12:46.251Z,3.30
2022-12-28T10:15:14.967Z,3.20
2022-12-28T10:17:47.948Z,3.38
2022-12-28T10:20:42.144Z,3.40
2022-12-28T10:23:15.485Z,3.45
2022-12-28T10:25:44.232Z,3.15
2022-12-28T10:28:13.840Z,3.42
2022-12-28T10:31:06.219Z,3.58
2022-12-28T10:33:40.804Z,3.90
2022-12-28T10:36:13.043Z,3.60
2022-12-28T10:38:45.298Z,3.80
2022-12-28T10:43:45.285Z,3.67
2022-12-28T10:46:18.332Z,3.72
2022-12-28T10:48:54.370Z,4.30
2022-12-28T10:51:24.023Z,4.30
2022-12-28T10:53:54.917Z,4.43
2022-12-28T10:56:26.368Z,3.65
2022-12-28T10:58:55.151Z,3.83
2022-12-28T11:01:27.087Z,3.70
2022-12-28T11:04:03.110Z,3.40
2022-12-28T11:06:33.189Z,3.40
2022-12-28T11:11:48.156Z,3.35
2022-12-28T11:14:30.581Z,3.08
2022-12-28T11:17:16.262Z,3.00
2022-12-28T11:19:45.458Z,2.80
2022-12-28T11:22:38.978Z,2.70
2022-12-28T11:25:07.895Z,2.70
2022-12-28T11:27:37.111Z,2.63
2022-12-28T11:30:07.653Z,2.47
2022-12-28T11:33:04.782Z,2.58
2022-12-28T11:35:39.182Z,2.42
2022-12-28T11:38:12.254Z,2.40
2022-12-28T11:40:53.256Z,2.30
2022-12-28T11:43:54.844Z,2.42
2022-12-28T11:46:46.182Z,2.30
2022-12-28T11:52:45.231Z,2.20
2022-12-28T11:55:51.510Z,2.28
2022-12-28T11:59:08.185Z,2.13
2022-12-28T12:01:54.134Z,2.17
2022-12-28T12:04:35.524Z,2.00
2022-12-28T12:07:31.166Z,2.10
2022-12-28T12:10:42.651Z,1.90
2022-12-28T12:13:46.169Z,2.10
2022-12-28T12:19:25.183Z,1.90
2022-12-28T12:22:01.927Z,1.85
2022-12-28T12:24:33.530Z,2.00
2022-12-28T12:27:11.876Z,2.00
2022-12-28T12:29:42.340Z,1.90
2022-12-28T12:32:19.156Z,1.80
2022-12-28T12:34:54.276Z,2.38
2022-12-28T12:37:54.375Z,2.20
2022-12-28T12:40:54.178Z,1.98
2022-12-28T12:43:31.755Z,2.00
2022-12-28T12:46:13.328Z,2.13
2022-12-28T12:49:04.529Z,2.30
2022-12-28T12:51:37.105Z,2.65
2022-12-28T12:56:55.187Z,3.22
2022-12-28T12:59:53.195Z,3.08
2022-12-28T13:02:56.437Z,2.90
2022-12-28T13:05:30.206Z,2.60
2022-12-28T13:07:59.797Z,2.78
2022-12-28T13:10:32.236Z,2.80
2022-12-28T13:13:03.288Z,2.30
2022-12-28T13:15:32.314Z,2.47
2022-12-28T13:18:17.969Z,2.55
2022-12-28T13:20:58.887Z,2.20
2022-12-28T13:23:27.417Z,2.30
2022-12-28T13:25:57.194Z,2.40
2022-12-28T13:28:29.081Z,2.40
2022-12-28T13:33:30.109Z,2.60
2022-12-28T13:36:24.516Z,2.67
2022-12-28T13:39:16.549Z,2.38
2022-12-28T13:41:50.246Z,2.60
2022-12-28T13:44:48.188Z,2.65
2022-12-28T13:47:23.192Z,2.58
2022-12-28T13:49:58.294Z,2.35
2022-12-28T13:52:33.163Z,2.30
2022-12-28T13:55:05.316Z,2.22
2022-12-28T13:57:46.675Z,2.10
2022-12-28T14:00:18.596Z,2.50
2022-12-28T14:02:49.188Z,2.10
2022-12-28T14:05:18.434Z,2.13
2022-12-28T14:07:49.297Z,1.90
2022-12-28T14:10:18.274Z,1.70
2022-12-28T14:12:49.190Z,2.05
2022-12-28T14:15:18.152Z,1.90
2022-12-28T14:17:47.713Z,1.90
2022-12-28T14:20:16.931Z,1.87
2022-12-28T14:22:46.357Z,1.85
2022-12-28T14:25:17.703Z,1.90
2022-12-28T14:27:57.496Z,1.80
2022-12-28T14:30:28.191Z,1.80
2022-12-28T14:32:56.916Z,1.80
2022-12-28T14:35:28.204Z,1.80
2022-12-28T14:37:59.354Z,1.77
2022-12-28T14:40:33.276Z,1.70
2022-12-28T14:43:08.640Z,1.88
2022-12-28T14:46:05.124Z,1.73
2022-12-28T14:48:36.111Z,1.63
2022-12-28T14:51:05.950Z,1.60
2022-12-28T14:53:33.579Z,2.00
2022-12-28T14:56:07.089Z,1.90
2022-12-28T14:58:41.322Z,1.88
2022-12-28T15:01:10.424Z,1.90
2022-12-28T15:03:53.095Z,1.90
2022-12-28T15:06:21.356Z,1.88
2022-12-28T15:08:51.802Z,2.03
2022-12-28T15:11:22.360Z,2.05
2022-12-28T15:13:51.380Z,2.08
2022-12-28T15:16:22.789Z,2.20
2022-12-28T15:18:50.819Z,2.25
2022-12-28T15:21:20.350Z,1.80
2022-12-28T15:23:52.168Z,1.95
2022-12-28T15:28:55.046Z,1.80
2022-12-28T15:31:23.188Z,1.90
2022-12-28T15:33:56.195Z,1.80
2022-12-28T15:36:27.925Z,1.92
2022-12-28T15:39:01.205Z,2.08
2022-12-28T15:41:48.749Z,1.90
2022-12-28T15:44:18.811Z,1.75
2022-12-28T15:47:10.819Z,1.80
2022-12-28T15:49:38.957Z,2.00
2022-12-28T15:52:06.666Z,1.85
2022-12-28T15:54:34.318Z,2.15
2022-12-28T15:57:03.355Z,1.70
2022-12-28T15:59:31.176Z,1.98
2022-12-28T16:01:59.379Z,1.90
2022-12-28T16:04:27.337Z,1.80
2022-12-28T16:06:55.983Z,1.90
2022-12-28T16:09:24.182Z,2.10
2022-12-28T16:11:55.306Z,2.00
2022-12-28T16:14:25.312Z,2.20
2022-12-28T16:16:54.314Z,1.70
2022-12-28T16:19:22.300Z,2.10
2022-12-28T16:21:51.204Z,1.90
2022-12-28T16:24:20.967Z,2.00
2022-12-28T16:26:48.648Z,2.22
2022-12-28T16:29:16.342Z,2.00
2022-12-28T16:31:46.341Z,1.95
2022-12-28T16:34:16.106Z,2.17
2022-12-28T16:36:45.750Z,1.90
2022-12-28T16:39:15.703Z,2.00
2022-12-28T16:41:46.196Z,1.77
2022-12-28T16:44:16.096Z,2.05
2022-12-28T16:46:45.070Z,1.90
2022-12-28T16:49:13.342Z,1.90
2022-12-28T16:51:43.699Z,1.95
2022-12-28T16:54:16.534Z,2.00
2022-12-28T16:56:45.201Z,2.22
2022-12-28T16:59:16.960Z,2.00
2022-12-28T17:01:47.059Z,1.90
2022-12-28T17:04:16.084Z,2.08
2022-12-28T17:06:46.348Z,2.20
2022-12-28T17:09:14.800Z,1.90
2022-12-28T17:11:42.771Z,1.90
2022-12-28T17:14:12.516Z,2.10
2022-12-28T17:16:40.667Z,1.90
2022-12-28T17:19:12.188Z,1.90
2022-12-28T17:21:41.196Z,1.95
2022-12-28T17:24:09.532Z,1.98
2022-12-28T17:26:37.343Z,1.90
2022-12-28T17:29:05.794Z,1.80
2022-12-28T17:31:36.293Z,1.90
2022-12-28T17:34:05.144Z,2.28
2022-12-28T17:36:34.069Z,2.40
2022-12-28T17:39:02.761Z,1.88
2022-12-28T17:41:31.289Z,2.20
2022-12-28T17:44:00.382Z,1.90
2022-12-28T17:46:30.095Z,2.08
2022-12-28T17:48:59.095Z,1.92
2022-12-28T17:51:28.919Z,2.00
2022-12-28T17:53:58.291Z,1.90
2022-12-28T17:56:26.710Z,2.20
2022-12-28T17:58:55.745Z,2.00
2022-12-28T18:01:23.669Z,2.00
2022-12-28T18:03:51.735Z,2.10
2022-12-28T18:06:19.473Z,1.85
2022-12-28T18:08:47.184Z,2.10
2022-12-28T18:11:16.259Z,2.10
2022-12-28T18:13:46.627Z,1.98
2022-12-28T18:16:17.245Z,2.10
2022-12-28T18:18:44.902Z,2.05
2022-12-28T18:21:21.111Z,2.00
2022-12-28T18:23:50.865Z,2.17
2022-12-28T18:26:22.752Z,2.20
2022-12-28T18:31:20.476Z,2.15
2022-12-28T18:33:48.255Z,2.10
2022-12-28T18:36:18.112Z,2.30
2022-12-28T18:38:47.558Z,1.80
2022-12-28T18:41:17.280Z,2.30
2022-12-28T18:43:46.481Z,1.90
2022-12-28T18:46:14.428Z,2.10
2022-12-28T18:48:42.435Z,2.03
2022-12-28T18:51:12.682Z,2.20
2022-12-28T18:53:42.444Z,2.70
2022-12-28T18:56:13.229Z,2.20
2022-12-28T18:58:42.158Z,2.30
2022-12-28T19:01:32.787Z,2.00
2022-12-28T19:04:01.539Z,1.88
2022-12-28T19:06:30.303Z,2.10
2022-12-28T19:09:00.642Z,4.10
2022-12-28T19:11:30.193Z,2.50
2022-12-28T19:14:23.044Z,2.33
2022-12-28T19:16:52.071Z,2.40
2022-12-28T19:19:20.873Z,2.10
2022-12-28T19:21:52.322Z,2.15
2022-12-28T19:24:24.358Z,2.30
2022-12-28T19:26:53.625Z,3.15
2022-12-28T19:29:21.280Z,2.13
2022-12-28T19:31:49.032Z,2.28
2022-12-28T19:34:18.217Z,2.10
2022-12-28T19:36:45.873Z,2.10
2022-12-28T19:39:14.666Z,2.15
2022-12-28T19:41:42.360Z,2.10
2022-12-28T19:44:10.471Z,2.03
2022-12-28T19:46:39.400Z,2.25
2022-12-28T19:49:07.129Z,2.38
2022-12-28T19:51:36.116Z,1.80
2022-12-28T19:54:03.877Z,2.10
2022-12-28T19:56:32.271Z,1.92
2022-12-28T19:59:06.442Z,1.90
2022-12-28T20:01:36.690Z,2.10
2022-12-28T20:04:12.497Z,1.90
2022-12-28T20:06:43.702Z,1.80
2022-12-28T20:09:12.479Z,2.00
2022-12-28T20:11:40.575Z,1.92
2022-12-28T20:14:08.409Z,2.08
2022-12-28T20:16:37.305Z,1.80
2022-12-28T20:19:06.757Z,1.75
2022-12-28T20:21:35.244Z,2.33
2022-12-28T20:24:05.000Z,3.33
2022-12-28T20:26:32.947Z,3.80
2022-12-28T20:29:02.477Z,2.53
2022-12-28T20:31:30.904Z,3.17
2022-12-28T20:34:00.219Z,3.40
2022-12-28T20:36:30.932Z,3.63
2022-12-28T20:38:58.787Z,2.83
2022-12-28T20:41:46.699Z,3.83
2022-12-28T20:44:17.146Z,3.50
2022-12-28T20:46:45.584Z,3.20
2022-12-28T20:49:13.590Z,2.63
2022-12-28T20:51:42.327Z,2.53
2022-12-28T20:54:10.934Z,2.30
2022-12-28T20:56:41.820Z,2.33
2022-12-28T20:59:10.741Z,1.63
2022-12-28T21:01:39.607Z,1.70
2022-12-28T21:04:07.669Z,1.65
2022-12-28T21:06:35.429Z,1.50
2022-12-28T21:09:04.457Z,1.75
2022-12-28T21:11:33.339Z,1.77
2022-12-28T21:14:02.376Z,1.60
2022-12-28T21:16:30.014Z,1.50
2022-12-28T21:18:57.769Z,1.50
2022-12-28T21:21:25.933Z,1.50
2022-12-28T21:23:53.710Z,1.60
2022-12-28T21:26:23.295Z,1.70
2022-12-28T21:28:51.148Z,1.52
2022-12-28T21:31:24.252Z,1.50
2022-12-28T21:33:55.531Z,1.50
2022-12-28T21:36:23.238Z,1.73
2022-12-28T21:38:51.760Z,1.60
2022-12-28T21:41:42.242Z,1.60
2022-12-28T21:44:11.623Z,1.70
2022-12-28T21:46:41.385Z,1.98
2022-12-28T21:49:10.147Z,1.85
2022-12-28T21:51:39.152Z,1.70
2022-12-28T21:54:08.599Z,1.70
2022-12-28T21:56:37.612Z,2.85
2022-12-28T21:59:05.803Z,1.67
2022-12-28T22:01:51.496Z,2.00
2022-12-28T22:04:41.010Z,1.60
2022-12-28T22:07:10.584Z,2.15
2022-12-28T22:09:56.137Z,2.20
2022-12-28T22:12:37.910Z,2.13
2022-12-28T22:15:27.366Z,2.25
2022-12-28T22:17:57.351Z,2.03
2022-12-28T22:20:27.566Z,2.10
2022-12-28T22:22:58.387Z,2.20
2022-12-28T22:25:26.540Z,1.83
2022-12-28T22:27:54.498Z,1.80
2022-12-28T22:30:22.807Z,2.05
2022-12-28T22:32:50.769Z,1.80
2022-12-28T22:35:18.673Z,1.83
2022-12-28T22:37:47.892Z,1.80
2022-12-28T22:40:16.431Z,2.60
2022-12-28T22:42:45.222Z,1.98
2022-12-28T22:45:15.536Z,1.95
2022-12-28T22:47:43.852Z,1.90
2022-12-28T22:50:14.265Z,1.70
2022-12-28T22:52:42.873Z,1.80
2022-12-28T22:55:12.288Z,2.00
2022-12-28T22:57:39.950Z,1.58
2022-12-28T23:00:10.941Z,2.28
2022-12-28T23:02:38.829Z,1.70
2022-12-28T23:05:07.388Z,1.95
2022-12-28T23:07:36.178Z,2.08
2022-12-28T23:10:04.314Z,2.00
2022-12-28T23:12:33.663Z,2.00
2022-12-28T23:15:15.665Z,1.90
2022-12-28T23:17:47.145Z,1.83
2022-12-28T23:20:33.172Z,2.17
2022-12-28T23:23:20.219Z,2.00
2022-12-28T23:26:07.275Z,2.20
2022-12-28T23:28:36.881Z,2.33
2022-12-28T23:31:05.397Z,2.10
2022-12-28T23:33:33.091Z,2.00
2022-12-28T23:36:02.746Z,2.15
2022-12-28T23:38:31.950Z,2.10
2022-12-28T23:41:14.234Z,2.03
2022-12-28T23:43:43.279Z,2.13
2022-12-28T23:46:11.705Z,1.98
2022-12-28T23:48:39.438Z,2.17
2022-12-28T23:51:08.832Z,2.20
2022-12-28T23:53:38.338Z,1.90
2022-12-28T23:56:06.607Z,2.03
2022-12-28T23:58:35.215Z,1.80
